Hamlet, Indiana
Current Conditions -  °F | °C
As of 5:35 AM on Tuesday 21 Oct 2014 (Local Time) from KOXI Reporting Station
Overcast Overcast  
Wind Chill: 45°   Ceiling: 2800
Heat Index: 47°   Visibility: 5mi
Dew Point: 45°   Wind: 5mph
Humidity: 90%   Direction: 360°N
Pressure: 30.02"   Gusts: NA
Location:  41.38°N, 86.58°W
Report Text: KOXI 211035Z AUTO 36004KT 5SM SCT015 BKN028 OVC034 09/07 A3002 RMK AO1 T00850070
Loading
Personal Weather Stations






























Interactive Weather Map
Tropical Storm Tracking
New forecast layout! Learn more

10-Day Weather Forecast

Advertisements
Track Severe Weather on mobile